createdAt,value
2022-11-13T00:00:26.459Z,8.8
2022-11-13T00:01:26.648Z,8.7
2022-11-13T00:02:26.563Z,8.8
2022-11-13T00:03:26.590Z,8.7
2022-11-13T00:04:26.703Z,8.6
2022-11-13T00:05:26.718Z,8.6
2022-11-13T00:06:27.059Z,8.5
2022-11-13T00:07:26.861Z,8.5
2022-11-13T00:08:27.336Z,8.5
2022-11-13T00:09:26.921Z,8.6
2022-11-13T00:10:26.976Z,8.6
2022-11-13T00:11:27.052Z,8.5
2022-11-13T00:12:27.535Z,8.5
2022-11-13T00:13:30.254Z,8.5
2022-11-13T00:14:27.184Z,8.6
2022-11-13T00:15:27.492Z,8.5
2022-11-13T00:16:27.328Z,8.5
2022-11-13T00:17:27.410Z,8.5
2022-11-13T00:18:27.771Z,8.3
2022-11-13T00:19:27.460Z,8.3
2022-11-13T00:20:27.536Z,8.1
2022-11-13T00:21:27.653Z,8.1
2022-11-13T00:22:27.632Z,8.2
2022-11-13T00:23:27.717Z,8.2
2022-11-13T00:24:27.920Z,8.1
2022-11-13T00:25:27.801Z,8
2022-11-13T00:26:27.917Z,7.9
2022-11-13T00:27:27.996Z,7.8
2022-11-13T00:28:28.189Z,7.6
2022-11-13T00:29:28.392Z,7.6
2022-11-13T00:30:28.163Z,7.8
2022-11-13T00:31:28.278Z,7.8
2022-11-13T00:32:28.287Z,7.9
2022-11-13T00:33:46.157Z,7.8
2022-11-13T00:34:46.902Z,7.7
2022-11-13T00:35:28.441Z,7.5
2022-11-13T00:36:28.497Z,7.5
2022-11-13T00:37:28.515Z,7.6
2022-11-13T00:38:28.866Z,7.5
2022-11-13T00:39:28.639Z,7.4
2022-11-13T00:40:28.688Z,7.3
2022-11-13T00:41:28.763Z,7.3
2022-11-13T00:42:28.794Z,7.2
2022-11-13T00:43:29.264Z,7.2
2022-11-13T00:44:28.913Z,7.3
2022-11-13T00:45:29.146Z,7.3
2022-11-13T00:46:29.045Z,7.4
2022-11-13T00:47:29.122Z,7.5
2022-11-13T00:48:29.447Z,7.4
2022-11-13T00:49:29.236Z,7.4
2022-11-13T00:50:29.248Z,7.4
2022-11-13T00:51:29.326Z,7.3
2022-11-13T00:52:29.343Z,7.4
2022-11-13T00:53:29.393Z,7.6
2022-11-13T00:54:29.451Z,7.7
2022-11-13T00:55:29.591Z,7.7
2022-11-13T00:56:29.753Z,7.6
2022-11-13T00:57:29.619Z,7.7
2022-11-13T00:58:30.072Z,7.8
2022-11-13T00:59:29.870Z,7.6
2022-11-13T01:00:29.840Z,7.5
2022-11-13T01:01:30.130Z,7.6
2022-11-13T01:02:29.969Z,7.6
2022-11-13T01:03:30.068Z,7.6
2022-11-13T01:04:30.090Z,7.5
2022-11-13T01:05:30.186Z,7.4
2022-11-13T01:06:39.134Z,7.4
2022-11-13T01:07:30.234Z,7.2
2022-11-13T01:08:30.424Z,7.1
2022-11-13T01:09:30.305Z,7.2
2022-11-13T01:10:30.387Z,7.3
2022-11-13T01:11:30.492Z,7.4
2022-11-13T01:12:30.508Z,7.5
2022-11-13T01:13:30.562Z,7.5
2022-11-13T01:14:30.604Z,7.5
2022-11-13T01:15:30.805Z,7.5
2022-11-13T01:16:30.727Z,7.6
2022-11-13T01:17:39.691Z,7.6
2022-11-13T01:18:30.938Z,7.5
2022-11-13T01:19:30.854Z,7.6
2022-11-13T01:20:30.940Z,7.3
2022-11-13T01:21:30.985Z,7.1
2022-11-13T01:22:31.104Z,7.2
2022-11-13T01:23:31.161Z,7.3
2022-11-13T01:24:31.203Z,7.3
2022-11-13T01:25:31.235Z,7.3
2022-11-13T01:26:31.358Z,7.3
2022-11-13T01:27:31.391Z,7.2
2022-11-13T01:28:31.487Z,7.2
2022-11-13T01:29:31.543Z,7.2
2022-11-13T01:30:31.561Z,7.2
2022-11-13T01:31:31.606Z,7.2
2022-11-13T01:32:31.661Z,7.3
2022-11-13T01:33:31.838Z,7.3
2022-11-13T01:34:31.786Z,7.2
2022-11-13T01:39:32.442Z,7.5
2022-11-13T01:40:32.101Z,7.5
2022-11-13T01:41:32.199Z,7.4
2022-11-13T01:42:33.354Z,7.4
2022-11-13T01:43:32.288Z,7.4
2022-11-13T01:44:32.353Z,7.5
2022-11-13T01:45:32.395Z,7.5
2022-11-13T01:46:32.467Z,7.5
2022-11-13T01:47:32.531Z,7.6
2022-11-13T01:48:32.580Z,7.6
2022-11-13T01:49:32.716Z,7.6
2022-11-13T01:50:32.667Z,7.6
2022-11-13T01:51:33.089Z,7.6
2022-11-13T01:52:32.794Z,7.6
2022-11-13T01:53:32.850Z,7.6
2022-11-13T01:54:32.906Z,7.7
2022-11-13T01:55:32.964Z,7.6
2022-11-13T01:56:33.065Z,7.5
2022-11-13T01:57:33.096Z,7.5
2022-11-13T01:58:33.153Z,7.5
2022-11-13T01:59:33.216Z,7.5
2022-11-13T02:00:33.225Z,7.5
2022-11-13T02:01:33.366Z,7.5
2022-11-13T02:02:34.678Z,7.5
2022-11-13T02:03:33.411Z,7.5
2022-11-13T02:04:33.497Z,7.4
2022-11-13T02:05:33.826Z,7.4
2022-11-13T02:13:10.625Z,6.5
2022-11-13T02:16:59.655Z,7
2022-11-13T02:17:52.966Z,6.9
2022-11-13T02:19:02.362Z,6.8
2022-11-13T02:19:53.209Z,6.9
2022-11-13T02:26:51.480Z,7.1
2022-11-13T02:27:51.366Z,7.1
2022-11-13T02:28:51.440Z,7.2
2022-11-13T02:29:51.491Z,7.2
2022-11-13T02:30:51.594Z,7.2
2022-11-13T02:31:51.675Z,7.2
2022-11-13T02:32:51.723Z,7.3
2022-11-13T02:33:51.764Z,7.3
2022-11-13T02:34:51.810Z,7.3
2022-11-13T02:35:51.882Z,7
2022-11-13T02:36:52.092Z,7
2022-11-13T02:37:52.326Z,7
2022-11-13T02:38:52.053Z,6.9
2022-11-13T02:39:52.091Z,6.8
2022-11-13T02:40:52.125Z,7
2022-11-13T02:41:52.208Z,7.2
2022-11-13T02:42:52.366Z,7.2
2022-11-13T02:43:52.300Z,7.2
2022-11-13T02:44:55.962Z,7.2
2022-11-13T02:50:55.672Z,7.3
2022-11-13T02:51:55.756Z,7.3
2022-11-13T02:52:55.855Z,7.3
2022-11-13T02:53:55.818Z,7.2
2022-11-13T02:54:56.040Z,7.1
2022-11-13T02:56:55.986Z,7.3
2022-11-13T02:57:56.088Z,7.3
2022-11-13T02:58:56.113Z,7.3
2022-11-13T02:59:56.162Z,7.3
2022-11-13T03:00:56.225Z,7.3
2022-11-13T03:02:00.690Z,7.3
2022-11-13T03:02:56.370Z,7.3
2022-11-13T03:03:58.689Z,7.3
2022-11-13T03:05:13.468Z,7.2
2022-11-13T03:05:56.547Z,7.3
2022-11-13T03:06:56.570Z,7.3
2022-11-13T03:07:59.952Z,7.4
2022-11-13T03:08:57.152Z,7.4
2022-11-13T03:09:56.711Z,7.3
2022-11-13T03:10:56.749Z,7.3
2022-11-13T03:11:56.811Z,7.3
2022-11-13T03:12:56.894Z,7.3
2022-11-13T03:13:58.879Z,7.3
2022-11-13T03:14:57.028Z,7.4
2022-11-13T03:15:57.094Z,7.4
2022-11-13T03:16:57.122Z,7.3
2022-11-13T03:17:57.279Z,7.4
2022-11-13T03:18:57.805Z,7.4
2022-11-13T03:19:57.382Z,7.4
2022-11-13T03:20:57.426Z,7.5
2022-11-13T03:21:57.554Z,7.6
2022-11-13T03:22:57.558Z,7.6
2022-11-13T03:23:57.812Z,7.7
2022-11-13T03:24:57.710Z,7.7
2022-11-13T03:25:57.749Z,7.6
2022-11-13T03:26:57.805Z,7.6
2022-11-13T03:28:39.479Z,7.6
2022-11-13T03:28:58.378Z,7.7
2022-11-13T03:30:09.504Z,7.7
2022-11-13T03:30:57.988Z,7.5
2022-11-13T03:31:58.030Z,7.5
2022-11-13T03:32:58.113Z,7.5
2022-11-13T03:33:58.200Z,7.5
2022-11-13T03:34:58.191Z,7.5
2022-11-13T03:35:58.261Z,7.5
2022-11-13T03:36:58.318Z,7.4
2022-11-13T03:37:58.347Z,7.4
2022-11-13T03:38:58.748Z,7.4
2022-11-13T03:39:58.487Z,7.3
2022-11-13T03:40:58.536Z,7.3
2022-11-13T03:41:58.541Z,7.3
2022-11-13T03:43:05.337Z,7.4
2022-11-13T03:43:58.681Z,7.4
2022-11-13T03:44:58.782Z,7.4
2022-11-13T03:46:01.553Z,7.3
2022-11-13T03:46:59.196Z,7.3
2022-11-13T03:47:58.889Z,7.4
2022-11-13T03:48:58.951Z,7.4
2022-11-13T03:50:14.026Z,7.4
2022-11-13T03:50:59.117Z,7.4
2022-11-13T03:52:00.300Z,7.4
2022-11-13T03:53:15.727Z,7.4
2022-11-13T03:53:59.335Z,7.4
2022-11-13T03:54:59.369Z,7.5
2022-11-13T03:55:59.460Z,7.5
2022-11-13T03:56:59.481Z,7.6
2022-11-13T03:58:00.942Z,7.6
2022-11-13T03:58:59.642Z,7.5
2022-11-13T03:59:59.661Z,7.6
2022-11-13T04:00:59.665Z,7.6
2022-11-13T04:02:00.228Z,7.6
2022-11-13T04:03:00.067Z,7.6
2022-11-13T04:04:00.100Z,7.7
2022-11-13T04:05:00.570Z,7.8
2022-11-13T04:06:00.032Z,7.5
2022-11-13T04:07:00.691Z,7.5
2022-11-13T04:08:00.104Z,7.5
2022-11-13T04:09:00.111Z,7.4
2022-11-13T04:10:00.611Z,7.3
2022-11-13T04:11:00.263Z,7.1
2022-11-13T04:12:01.322Z,7.2
2022-11-13T04:13:00.334Z,7.3
2022-11-13T04:14:02.725Z,7.3
2022-11-13T04:15:00.620Z,7.3
2022-11-13T04:16:00.533Z,7.3
2022-11-13T04:17:00.581Z,7.2
2022-11-13T04:18:00.719Z,7.2
2022-11-13T04:19:00.668Z,7.2
2022-11-13T04:20:00.755Z,7.2
2022-11-13T04:21:00.775Z,7.3
2022-11-13T04:22:00.825Z,7.3
2022-11-13T04:23:00.929Z,7.3
2022-11-13T04:24:00.919Z,7.3
2022-11-13T04:25:00.993Z,7.3
2022-11-13T04:26:01.086Z,7.3
2022-11-13T04:27:01.110Z,7.3
2022-11-13T04:28:01.941Z,7.2
2022-11-13T04:29:01.207Z,7.2
2022-11-13T04:30:01.286Z,7.2
2022-11-13T04:31:29.676Z,7.2
2022-11-13T04:32:01.455Z,7.1
2022-11-13T04:33:01.439Z,7
2022-11-13T04:34:01.593Z,7
2022-11-13T04:35:01.519Z,7
2022-11-13T04:36:01.596Z,7
2022-11-13T04:37:01.923Z,7
2022-11-13T04:38:01.692Z,7
2022-11-13T04:39:02.032Z,7.1
2022-11-13T04:40:01.755Z,7.1
2022-11-13T04:41:01.851Z,7.1
2022-11-13T04:42:04.281Z,7.1
2022-11-13T04:43:01.945Z,7.1
2022-11-13T04:44:01.990Z,7
2022-11-13T04:45:02.024Z,7
2022-11-13T04:46:02.085Z,7
2022-11-13T04:47:02.142Z,7
2022-11-13T04:48:02.200Z,7
2022-11-13T04:49:03.632Z,7
2022-11-13T04:50:02.306Z,7
2022-11-13T04:51:02.363Z,7
2022-11-13T04:52:02.434Z,7
2022-11-13T04:53:02.518Z,7
2022-11-13T04:54:02.663Z,6.9
2022-11-13T04:55:02.662Z,6.8
2022-11-13T04:56:02.626Z,6.9
2022-11-13T04:57:02.809Z,6.8
2022-11-13T04:58:02.767Z,6.7
2022-11-13T04:59:02.794Z,6.6
2022-11-13T05:00:03.021Z,6.5
2022-11-13T05:01:02.913Z,6.4
2022-11-13T05:02:06.010Z,6.4
2022-11-13T05:03:03.024Z,6.5
2022-11-13T05:04:03.052Z,6.5
2022-11-13T05:05:05.108Z,6.5
2022-11-13T05:06:03.195Z,6.4
2022-11-13T05:07:03.306Z,6.4
2022-11-13T05:08:03.375Z,6.5
2022-11-13T05:09:03.359Z,6.6
2022-11-13T05:10:03.465Z,6.5
2022-11-13T05:11:03.517Z,6.5
2022-11-13T05:12:03.577Z,6.5
2022-11-13T05:13:03.662Z,6.6
2022-11-13T05:14:03.914Z,6.7
2022-11-13T05:15:03.743Z,6.5
2022-11-13T05:16:03.780Z,6.4
2022-11-13T05:17:03.881Z,6.3
2022-11-13T05:18:03.941Z,5.9
2022-11-13T05:19:04.424Z,6
2022-11-13T05:20:04.023Z,5.9
2022-11-13T05:21:04.196Z,5.6
2022-11-13T05:22:04.175Z,5.5
2022-11-13T05:23:04.226Z,5.7
2022-11-13T05:24:04.612Z,5.8
2022-11-13T05:25:04.746Z,5.9
2022-11-13T05:26:04.398Z,5.9
2022-11-13T05:27:04.463Z,6
2022-11-13T05:28:05.981Z,6.1
2022-11-13T05:29:04.544Z,6.3
2022-11-13T05:30:04.617Z,6.3
2022-11-13T05:31:04.661Z,6.5
2022-11-13T05:32:04.720Z,6.5
2022-11-13T05:33:04.834Z,6.7
2022-11-13T05:34:06.049Z,6.6
2022-11-13T05:35:04.909Z,6.6
2022-11-13T05:36:05.435Z,6.6
2022-11-13T05:37:05.437Z,6.7
2022-11-13T05:38:05.354Z,6.8
2022-11-13T05:39:05.103Z,6.8
2022-11-13T05:40:05.152Z,6.8
2022-11-13T05:41:05.254Z,6.8
2022-11-13T05:42:05.278Z,6.8
2022-11-13T05:43:05.363Z,6.8
2022-11-13T05:44:05.430Z,6.8
2022-11-13T05:45:05.463Z,6.8
2022-11-13T05:46:05.503Z,6.8
2022-11-13T05:47:06.553Z,6.8
2022-11-13T05:48:05.646Z,6.7
2022-11-13T05:49:05.687Z,6.7
2022-11-13T05:50:06.346Z,6.7
2022-11-13T05:51:05.804Z,6.7
2022-11-13T05:52:05.850Z,6.8
2022-11-13T05:53:06.047Z,6.8
2022-11-13T05:54:05.980Z,6.8
2022-11-13T05:55:06.003Z,6.8
2022-11-13T05:56:06.122Z,6.9
2022-11-13T05:57:06.150Z,6.8
2022-11-13T05:58:06.176Z,6.9
2022-11-13T05:59:06.262Z,6.9
2022-11-13T06:00:06.320Z,6.8
2022-11-13T06:01:06.375Z,6.8
2022-11-13T06:02:06.724Z,6.8
2022-11-13T06:03:06.550Z,6.9
2022-11-13T06:04:06.588Z,6.9
2022-11-13T06:05:06.639Z,6.8
2022-11-13T06:06:06.731Z,6.7
2022-11-13T06:07:06.777Z,6.7
2022-11-13T06:08:06.809Z,6.6
2022-11-13T06:09:07.003Z,6.7
2022-11-13T06:10:06.899Z,6.6
2022-11-13T06:11:07.443Z,6.7
2022-11-13T06:12:07.011Z,6.8
2022-11-13T06:13:07.033Z,6.8
2022-11-13T06:14:07.127Z,6.8
2022-11-13T06:15:07.184Z,6.8
2022-11-13T06:16:10.206Z,6.9
2022-11-13T06:17:07.326Z,6.9
2022-11-13T06:18:07.367Z,7
2022-11-13T06:19:07.469Z,7.2
2022-11-13T06:20:07.535Z,7.3
2022-11-13T06:21:07.581Z,7.3
2022-11-13T06:22:07.665Z,7.3
2022-11-13T06:23:07.701Z,7.3
2022-11-13T06:24:07.779Z,7.3
2022-11-13T06:25:08.200Z,7.3
2022-11-13T06:26:07.874Z,7.4
2022-11-13T06:27:07.921Z,7.4
2022-11-13T06:28:07.994Z,7.4
2022-11-13T06:29:08.034Z,7.4
2022-11-13T06:30:08.113Z,7.4
2022-11-13T06:31:08.155Z,7.5
2022-11-13T06:32:08.194Z,7.5
2022-11-13T06:33:08.286Z,7.5
2022-11-13T06:34:08.342Z,7.4
2022-11-13T06:35:08.363Z,7.3
2022-11-13T06:36:08.685Z,7.2
2022-11-13T06:37:08.517Z,7.3
2022-11-13T06:38:08.568Z,7.2
2022-11-13T06:39:08.786Z,7.2
2022-11-13T06:40:08.702Z,7.3
2022-11-13T06:41:08.836Z,7.3
2022-11-13T06:42:08.777Z,7.2
2022-11-13T06:43:08.836Z,7.3
2022-11-13T06:44:09.176Z,7.2
2022-11-13T06:45:09.259Z,7.3
2022-11-13T06:46:09.185Z,7.3
2022-11-13T06:47:09.389Z,7.2
2022-11-13T06:48:09.120Z,7.3
2022-11-13T06:49:09.220Z,7.3
2022-11-13T06:50:09.291Z,7.2
2022-11-13T06:51:09.365Z,7.2
2022-11-13T06:52:09.390Z,7.3
2022-11-13T06:53:09.440Z,7.3
2022-11-13T06:54:09.523Z,7.4
2022-11-13T06:55:09.566Z,7.4
2022-11-13T06:56:09.644Z,7.5
2022-11-13T06:57:09.821Z,7.7
2022-11-13T06:58:09.744Z,7.8
2022-11-13T06:59:09.825Z,7.8
2022-11-13T07:00:09.870Z,7.8
2022-11-13T07:01:09.926Z,7.8
2022-11-13T07:02:09.982Z,7.9
2022-11-13T07:03:10.047Z,7.9
2022-11-13T07:04:10.097Z,7.9
2022-11-13T07:05:15.289Z,8
2022-11-13T07:06:10.419Z,8.1
2022-11-13T07:07:10.322Z,8.2
2022-11-13T07:08:11.915Z,8.3
2022-11-13T07:09:11.290Z,8.4
2022-11-13T07:10:10.707Z,8.4
2022-11-13T07:11:10.971Z,8.6
2022-11-13T07:12:10.713Z,8.6
2022-11-13T07:13:10.692Z,8.6
2022-11-13T07:14:20.281Z,8.7
2022-11-13T07:15:10.666Z,8.8
2022-11-13T07:16:16.735Z,8.8
2022-11-13T07:17:10.818Z,8.8
2022-11-13T07:18:10.771Z,8.8
2022-11-13T07:19:10.827Z,9
2022-11-13T07:20:10.901Z,9
2022-11-13T07:21:10.953Z,9
2022-11-13T07:22:11.039Z,9.1
2022-11-13T07:23:11.166Z,9.2
2022-11-13T07:24:15.651Z,9.3
2022-11-13T07:25:11.357Z,9.3
2022-11-13T07:26:11.390Z,9.5
2022-11-13T07:27:11.504Z,9.6
2022-11-13T07:28:11.657Z,9.6
2022-11-13T07:29:16.007Z,9.5
2022-11-13T07:30:11.723Z,9.6
2022-11-13T07:31:11.864Z,9.9
2022-11-13T07:32:36.560Z,10.1
2022-11-13T07:33:11.893Z,10
2022-11-13T07:34:11.937Z,9.9
2022-11-13T07:35:12.404Z,10.1
2022-11-13T07:36:12.018Z,10.2
2022-11-13T07:37:12.124Z,10.2
2022-11-13T07:38:12.155Z,10.3
2022-11-13T07:39:12.190Z,10.4
2022-11-13T07:40:12.255Z,10.4
2022-11-13T07:41:12.306Z,10.3
2022-11-13T07:42:13.885Z,10.3
2022-11-13T07:43:12.406Z,10.2
2022-11-13T07:44:18.425Z,10.2
2022-11-13T07:45:12.810Z,10
2022-11-13T07:46:13.526Z,10.2
2022-11-13T07:47:21.563Z,10.2
2022-11-13T07:48:13.307Z,10.4
2022-11-13T07:49:14.434Z,10.4
2022-11-13T07:50:18.101Z,10.4
2022-11-13T07:51:21.689Z,10.4
2022-11-13T07:52:18.169Z,10.5
2022-11-13T07:53:18.667Z,10.6
2022-11-13T07:54:18.552Z,10.6
2022-11-13T07:55:18.846Z,10.5
2022-11-13T07:56:22.830Z,10.5
2022-11-13T07:57:18.667Z,10.5
2022-11-13T07:58:18.633Z,10.6
2022-11-13T07:59:18.450Z,10.5
2022-11-13T08:00:18.687Z,10.7
2022-11-13T08:01:39.238Z,10.7
2022-11-13T08:44:57.732Z,10.7
2022-11-13T09:11:28.301Z,13.8
2022-11-13T09:12:28.178Z,13.9
2022-11-13T09:13:33.218Z,14.1
2022-11-13T09:14:28.309Z,14.1
2022-11-13T09:15:28.334Z,14.2
2022-11-13T09:16:28.416Z,14.4
2022-11-13T09:17:28.471Z,14.6
2022-11-13T09:18:28.877Z,14.5
2022-11-13T09:19:28.611Z,14.8
2022-11-13T09:20:28.692Z,14.7
2022-11-13T09:21:28.750Z,15
2022-11-13T09:22:28.796Z,14.8
2022-11-13T09:23:31.507Z,15
2022-11-13T09:24:35.926Z,15.3
2022-11-13T09:25:32.799Z,15.3
2022-11-13T09:26:29.110Z,15.5
2022-11-13T09:27:29.289Z,15.4
2022-11-13T09:28:29.445Z,15.8
2022-11-13T09:29:29.276Z,16.3
2022-11-13T09:30:29.370Z,16.6
2022-11-13T09:31:29.448Z,16.6
2022-11-13T09:32:29.501Z,16.4
2022-11-13T09:33:29.573Z,16.8
2022-11-13T09:34:29.621Z,17
2022-11-13T09:35:29.738Z,17.1
2022-11-13T09:36:29.822Z,17.3
2022-11-13T09:37:29.875Z,17.7
2022-11-13T09:38:30.211Z,17.4
2022-11-13T09:39:30.028Z,17.5
2022-11-13T09:40:30.030Z,17.6
2022-11-13T09:41:30.168Z,18
2022-11-13T09:42:30.201Z,18.1
2022-11-13T09:43:30.285Z,18.1
2022-11-13T09:44:30.305Z,18.1
2022-11-13T09:45:30.371Z,18.2
2022-11-13T09:46:30.440Z,18.4
2022-11-13T09:47:30.452Z,18.9
2022-11-13T09:48:30.943Z,19.1
2022-11-13T09:49:30.602Z,19.3
2022-11-13T09:50:30.635Z,19.4
2022-11-13T09:51:30.685Z,19.5
2022-11-13T09:52:30.733Z,19.6
2022-11-13T09:53:30.766Z,19.3
2022-11-13T09:54:30.835Z,19.5
2022-11-13T09:55:30.901Z,19.4
2022-11-13T09:56:30.982Z,19.3
2022-11-13T09:57:31.050Z,19
2022-11-13T09:58:34.943Z,18.5
2022-11-13T09:59:38.055Z,18.5
2022-11-13T10:00:31.617Z,18.5
2022-11-13T10:01:31.267Z,18.4
2022-11-13T10:02:43.646Z,18.4
2022-11-13T10:03:54.564Z,18.3
2022-11-13T10:06:31.462Z,18.5
2022-11-13T10:07:31.496Z,18.5
2022-11-13T10:08:31.866Z,18.2
2022-11-13T10:09:31.622Z,18.3
2022-11-13T10:10:31.656Z,18
2022-11-13T10:11:31.781Z,18.1
2022-11-13T10:12:32.845Z,18.4
2022-11-13T10:13:31.877Z,18.7
2022-11-13T10:14:32.041Z,18.6
2022-11-13T10:15:31.967Z,18.6
2022-11-13T10:16:32.289Z,18.4
2022-11-13T10:17:32.267Z,18.1
2022-11-13T10:18:32.405Z,18.1
2022-11-13T10:19:32.217Z,18.2
2022-11-13T10:20:32.259Z,18.1
2022-11-13T10:21:32.863Z,18.2
2022-11-13T10:22:34.090Z,18.3
2022-11-13T10:23:32.615Z,18.6
2022-11-13T10:24:32.480Z,18.5
2022-11-13T10:25:32.898Z,18.4
2022-11-13T10:26:32.631Z,18.4
2022-11-13T10:27:32.898Z,18.5
2022-11-13T10:28:49.874Z,18.6
2022-11-13T10:29:32.792Z,18.9
2022-11-13T10:30:35.910Z,19.1
2022-11-13T10:31:41.882Z,19.3
2022-11-13T10:32:33.043Z,19.2
2022-11-13T10:33:33.409Z,19.2
2022-11-13T10:34:33.042Z,19
2022-11-13T10:35:33.059Z,19.2
2022-11-13T10:36:33.068Z,19.2
2022-11-13T10:37:33.120Z,19.5
2022-11-13T10:38:33.188Z,19.4
2022-11-13T10:39:33.217Z,19.5
2022-11-13T10:40:33.303Z,19.7
2022-11-13T10:41:33.357Z,19.6
2022-11-13T10:42:33.465Z,19.9
2022-11-13T10:43:33.509Z,20.1
2022-11-13T10:44:33.563Z,19.7
2022-11-13T10:45:33.824Z,19.9
2022-11-13T10:46:33.925Z,20.3
2022-11-13T10:48:47.677Z,20.4
2022-11-13T10:49:33.901Z,20.1
2022-11-13T10:50:34.001Z,19.9
2022-11-13T10:51:34.765Z,19.9
2022-11-13T10:52:38.615Z,19.8
2022-11-13T10:53:34.846Z,20.1
2022-11-13T10:54:34.576Z,20
2022-11-13T10:56:35.155Z,20.1
2022-11-13T10:57:56.189Z,19.8
2022-11-13T10:59:02.808Z,19.8
2022-11-13T10:59:36.063Z,19.6
2022-11-13T11:00:35.632Z,19.4
2022-11-13T11:01:35.275Z,19.3
2022-11-13T11:02:37.577Z,19.3
2022-11-13T11:03:35.124Z,19.2
2022-11-13T11:04:35.734Z,19.4
2022-11-13T11:05:35.184Z,19.5
2022-11-13T11:07:04.955Z,19.5
2022-11-13T11:07:35.544Z,19.5
2022-11-13T11:08:41.137Z,19.4
2022-11-13T11:09:35.649Z,19.5
2022-11-13T11:10:40.548Z,19.2
2022-11-13T11:11:46.521Z,19.4
2022-11-13T11:12:48.540Z,19.5
2022-11-13T11:13:47.157Z,19.5
2022-11-13T11:14:47.248Z,19.9
2022-11-13T11:15:47.280Z,19.8
2022-11-13T11:16:48.883Z,20
2022-11-13T11:17:48.236Z,20.1
2022-11-13T11:18:47.715Z,19.9
2022-11-13T11:19:49.240Z,19.9
2022-11-13T11:20:48.176Z,19.9
2022-11-13T11:21:48.266Z,19.8
2022-11-13T11:22:48.033Z,19.7
2022-11-13T11:23:50.579Z,19.6
2022-11-13T11:24:49.086Z,19.5
2022-11-13T11:25:47.870Z,19.7
2022-11-13T11:26:47.925Z,19.7
2022-11-13T11:27:48.034Z,19.8
2022-11-13T11:28:48.047Z,19.7
2022-11-13T11:29:49.968Z,19.9
2022-11-13T11:30:48.231Z,20.3
2022-11-13T11:31:48.275Z,20.5
2022-11-13T11:32:48.313Z,20.4
2022-11-13T11:33:48.860Z,20
2022-11-13T11:34:59.351Z,20
2022-11-13T11:35:48.969Z,20.2
2022-11-13T11:36:51.279Z,20.6
2022-11-13T11:37:48.623Z,20.8
2022-11-13T11:38:48.694Z,20.8
2022-11-13T11:39:48.786Z,20.7
2022-11-13T11:40:48.974Z,20.5
2022-11-13T11:41:52.190Z,20.4
2022-11-13T11:43:07.207Z,20.3
2022-11-13T11:44:07.265Z,20.2
2022-11-13T11:45:08.399Z,20.5
2022-11-13T11:46:07.521Z,20.7
2022-11-13T11:47:09.390Z,21
2022-11-13T11:48:07.584Z,20.7
2022-11-13T11:49:07.786Z,20.5
2022-11-13T11:50:07.950Z,20.2
2022-11-13T11:51:12.768Z,20.5
2022-11-13T11:52:07.939Z,20.8
2022-11-13T11:53:08.167Z,20.6
2022-11-13T11:54:08.035Z,20.7
2022-11-13T11:55:08.044Z,20.5
2022-11-13T11:56:14.565Z,20.3
2022-11-13T11:57:33.291Z,20.3
2022-11-13T11:58:09.729Z,20.4
2022-11-13T11:59:08.721Z,20.2
2022-11-13T12:00:08.456Z,20
2022-11-13T12:01:08.509Z,19.9
2022-11-13T12:02:08.766Z,19.9
2022-11-13T12:03:14.121Z,19.9
2022-11-13T12:04:09.384Z,19.8
2022-11-13T12:05:10.969Z,19.7
2022-11-13T12:06:09.318Z,19.7
2022-11-13T12:07:09.031Z,19.8
2022-11-13T12:08:09.028Z,20
2022-11-13T12:09:10.905Z,20.1
2022-11-13T12:10:10.184Z,20
2022-11-13T12:11:09.665Z,20.1
2022-11-13T12:12:09.335Z,20.4
2022-11-13T12:13:09.420Z,20.1
2022-11-13T12:14:10.159Z,20
2022-11-13T12:15:09.565Z,20
2022-11-13T12:20:10.461Z,20.3
2022-11-13T12:27:08.798Z,20.7
2022-11-13T12:28:07.644Z,20.5
2022-11-13T12:29:17.587Z,20.4
2022-11-13T12:30:08.527Z,20.4
2022-11-13T12:31:09.251Z,20.5
2022-11-13T12:32:07.939Z,20.5
2022-11-13T12:33:08.860Z,20.6
2022-11-13T12:34:07.958Z,20.4
2022-11-13T12:35:12.844Z,20.3
2022-11-13T12:36:09.176Z,20.6
2022-11-13T12:37:08.116Z,20.9
2022-11-13T12:38:08.156Z,20.7
2022-11-13T12:39:08.284Z,20.7
2022-11-13T12:40:08.273Z,20.7
2022-11-13T12:41:08.248Z,20.5
2022-11-13T12:42:08.326Z,20.6
2022-11-13T12:43:08.444Z,20.5
2022-11-13T12:44:08.356Z,20.5
2022-11-13T12:45:09.977Z,20.6
2022-11-13T12:46:08.545Z,20.7
2022-11-13T12:47:08.494Z,20.8
2022-11-13T12:48:08.477Z,20.8
2022-11-13T12:49:08.595Z,20.9
2022-11-13T12:50:08.510Z,20.7
2022-11-13T12:51:08.632Z,20.5
2022-11-13T12:52:08.588Z,20.6
2022-11-13T12:53:08.645Z,20.3
2022-11-13T12:54:08.630Z,20.2
2022-11-13T12:55:08.702Z,20.3
2022-11-13T12:56:08.744Z,20.1
2022-11-13T12:57:10.376Z,20
2022-11-13T12:58:08.817Z,20
2022-11-13T13:00:50.952Z,20.4
2022-11-13T13:01:10.777Z,20.4
2022-11-13T13:02:08.956Z,20.4
2022-11-13T13:03:10.282Z,20.1
2022-11-13T13:04:08.955Z,20
2022-11-13T13:05:09.095Z,19.9
2022-11-13T13:06:09.279Z,19.9
2022-11-13T13:07:09.188Z,20
2022-11-13T13:08:10.515Z,20
2022-11-13T13:09:09.140Z,19.9
2022-11-13T13:10:10.014Z,19.9
2022-11-13T13:11:09.203Z,19.9
2022-11-13T13:12:09.263Z,19.8
2022-11-13T13:13:09.671Z,19.8
2022-11-13T13:14:10.606Z,19.8
2022-11-13T13:15:09.629Z,19.6
2022-11-13T13:16:09.495Z,19.4
2022-11-13T13:17:09.396Z,19.4
2022-11-13T13:18:09.427Z,19.2
2022-11-13T13:19:09.602Z,19
2022-11-13T13:20:09.551Z,19.1
2022-11-13T13:21:09.570Z,19
2022-11-13T13:22:09.579Z,19
2022-11-13T13:23:09.590Z,19.4
2022-11-13T13:24:12.876Z,19.1
2022-11-13T13:25:17.281Z,19.1
2022-11-13T13:27:15.539Z,19
2022-11-13T13:28:15.724Z,19.1
2022-11-13T13:29:15.500Z,19
2022-11-13T13:30:16.921Z,18.7
2022-11-13T13:31:15.621Z,18.9
2022-11-13T13:32:20.373Z,18.9
2022-11-13T13:33:15.437Z,18.8
2022-11-13T13:34:18.255Z,18.9
2022-11-13T13:35:23.419Z,18.8
2022-11-13T13:36:19.611Z,18.7
2022-11-13T13:39:16.127Z,18.3
2022-11-13T13:40:15.907Z,18.3
2022-11-13T13:41:15.985Z,18.3
2022-11-13T13:42:16.110Z,18.1
2022-11-13T13:43:16.122Z,18.1
2022-11-13T13:44:16.207Z,18.1
2022-11-13T13:45:18.528Z,18.2
2022-11-13T13:46:16.317Z,18.1
2022-11-13T13:47:16.501Z,18.1
2022-11-13T13:48:16.425Z,18
2022-11-13T13:49:16.512Z,18.2
2022-11-13T13:50:17.406Z,18.2
2022-11-13T13:51:22.991Z,18.3
2022-11-13T13:52:23.066Z,18.2
2022-11-13T13:53:23.092Z,18.3
2022-11-13T13:54:23.199Z,18.4
2022-11-13T13:55:23.199Z,18.5
2022-11-13T13:56:23.218Z,18.3
2022-11-13T13:57:23.321Z,18.1
2022-11-13T13:58:23.277Z,17.8
2022-11-13T13:59:23.320Z,18
2022-11-13T14:00:23.373Z,18.2
2022-11-13T14:01:23.447Z,18.4
2022-11-13T14:02:23.481Z,18.3
2022-11-13T14:03:24.033Z,18.3
2022-11-13T14:04:23.483Z,18.6
2022-11-13T14:05:23.497Z,18.4
2022-11-13T14:06:23.525Z,18.2
2022-11-13T14:07:23.690Z,18
2022-11-13T14:08:23.606Z,18
2022-11-13T14:09:23.687Z,18
2022-11-13T14:10:23.706Z,18
2022-11-13T14:11:23.783Z,18
2022-11-13T14:12:23.858Z,17.9
2022-11-13T14:13:23.845Z,17.8
2022-11-13T14:14:23.894Z,17.9
2022-11-13T14:15:23.958Z,17.9
2022-11-13T14:16:23.954Z,17.7
2022-11-13T14:17:23.989Z,17.6
2022-11-13T14:18:24.145Z,17.9
2022-11-13T14:19:24.127Z,18.1
2022-11-13T14:20:24.228Z,18.3
2022-11-13T14:21:24.190Z,18.3
2022-11-13T14:22:24.253Z,18.4
2022-11-13T14:23:24.244Z,18
2022-11-13T14:24:24.277Z,18.1
2022-11-13T14:25:29.375Z,18.2
2022-11-13T14:26:24.327Z,18.1
2022-11-13T14:27:24.392Z,18.1
2022-11-13T14:28:24.433Z,18.2
2022-11-13T14:29:24.467Z,18.2
2022-11-13T14:30:24.507Z,17.8
2022-11-13T14:31:24.493Z,17.6
2022-11-13T14:32:24.525Z,17.5
2022-11-13T14:33:24.573Z,17.2
2022-11-13T14:34:24.706Z,17.3
2022-11-13T14:35:24.659Z,17.5
2022-11-13T14:36:24.668Z,17.6
2022-11-13T14:37:24.691Z,17.7
2022-11-13T14:38:24.711Z,17.6
2022-11-13T14:39:24.777Z,17.2
2022-11-13T14:40:24.771Z,17
2022-11-13T14:41:24.812Z,16.9
2022-11-13T14:42:24.946Z,17.1
2022-11-13T14:43:25.021Z,17
2022-11-13T14:45:32.106Z,17
2022-11-13T14:45:33.136Z,17.2
2022-11-13T14:46:25.206Z,17.2
2022-11-13T14:47:25.304Z,17.1
2022-11-13T14:48:25.349Z,16.8
2022-11-13T14:49:25.441Z,16.7
2022-11-13T14:50:25.601Z,16.8
2022-11-13T14:51:25.651Z,16.7
2022-11-13T14:52:25.783Z,16.6
2022-11-13T14:53:25.710Z,16.7
2022-11-13T14:54:25.753Z,16.8
2022-11-13T14:55:25.778Z,16.8
2022-11-13T14:56:25.814Z,16.7
2022-11-13T14:57:25.799Z,16.6
2022-11-13T14:58:25.856Z,16.5
2022-11-13T14:59:25.877Z,16.6
2022-11-13T15:00:25.925Z,16.5
2022-11-13T15:01:25.944Z,16.4
2022-11-13T15:02:25.963Z,16.4
2022-11-13T15:03:26.189Z,16.4
2022-11-13T15:04:26.066Z,16.4
2022-11-13T15:05:26.058Z,16.3
2022-11-13T15:06:26.235Z,16.3
2022-11-13T15:07:26.182Z,16.1
2022-11-13T15:08:26.174Z,15.9
2022-11-13T15:09:26.224Z,15.9
2022-11-13T15:10:26.240Z,16
2022-11-13T15:11:26.279Z,16
2022-11-13T15:12:26.340Z,16.2
2022-11-13T15:13:26.635Z,16.2
2022-11-13T15:14:26.415Z,16.2
2022-11-13T15:15:30.215Z,16.4
2022-11-13T15:16:26.472Z,16.5
2022-11-13T15:17:26.507Z,16.5
2022-11-13T15:18:31.988Z,16.5
2022-11-13T15:19:26.565Z,16.4
2022-11-13T15:20:26.608Z,16.4
2022-11-13T15:21:30.505Z,16.5
2022-11-13T15:22:27.797Z,16.5
2022-11-13T15:23:26.991Z,16.6
2022-11-13T15:24:27.745Z,16.6
2022-11-13T15:25:28.509Z,16.6
2022-11-13T15:26:26.820Z,16.6
2022-11-13T15:27:30.337Z,16.5
2022-11-13T15:28:26.909Z,16.2
2022-11-13T15:29:26.898Z,16.2
2022-11-13T15:30:30.623Z,16.2